createdAt,value
2022-11-24T00:00:45.119Z,100386.63
2022-11-24T00:03:28.585Z,100387.53
2022-11-24T00:06:05.645Z,100377.56
2022-11-24T00:08:39.175Z,100382.97
2022-11-24T00:11:14.032Z,100386.59
2022-11-24T00:13:46.221Z,100383.69
2022-11-24T00:16:23.092Z,100378.50
2022-11-24T00:18:56.940Z,100393.34
2022-11-24T00:21:33.577Z,100390.00
2022-11-24T00:24:05.845Z,100386.34
2022-11-24T00:26:40.589Z,100385.31
2022-11-24T00:29:14.540Z,100387.38
2022-11-24T00:31:49.324Z,100394.03
2022-11-24T00:34:21.050Z,100383.22
2022-11-24T00:36:55.189Z,100383.94
2022-11-24T00:39:29.773Z,100387.31
2022-11-24T00:42:02.537Z,100382.66
2022-11-24T00:44:34.552Z,100382.88
2022-11-24T00:47:09.732Z,100379.88
2022-11-24T00:49:42.969Z,100384.66
2022-11-24T00:52:15.136Z,100380.00
2022-11-24T00:54:46.801Z,100382.13
2022-11-24T00:57:19.028Z,100386.59
2022-11-24T00:59:50.981Z,100379.31
2022-11-24T01:02:25.601Z,100381.56
2022-11-24T01:04:57.421Z,100383.91
2022-11-24T01:07:29.630Z,100375.88
2022-11-24T01:10:03.420Z,100390.19
2022-11-24T01:12:35.341Z,100395.56
2022-11-24T01:15:07.521Z,100386.25
2022-11-24T01:17:44.335Z,100400.22
2022-11-24T01:20:16.058Z,100399.34
2022-11-24T01:22:51.351Z,100412.53
2022-11-24T01:25:25.422Z,100409.66
2022-11-24T01:27:59.337Z,100407.63
2022-11-24T01:30:31.073Z,100408.97
2022-11-24T01:33:06.676Z,100399.94
2022-11-24T01:35:39.650Z,100395.81
2022-11-24T01:38:13.995Z,100383.03
2022-11-24T01:40:45.648Z,100390.22
2022-11-24T01:43:21.281Z,100379.59
2022-11-24T01:45:53.164Z,100395.47
2022-11-24T01:48:31.056Z,100403.66
2022-11-24T01:51:11.522Z,100401.75
2022-11-24T01:53:47.716Z,100405.91
2022-11-24T01:56:19.695Z,100415.91
2022-11-24T01:58:54.686Z,100421.38
2022-11-24T02:01:26.701Z,100420.50
2022-11-24T02:04:04.847Z,100419.28
2022-11-24T02:06:39.133Z,100428.69
2022-11-24T02:09:17.008Z,100422.88
2022-11-24T02:11:50.441Z,100421.47
2022-11-24T02:14:25.515Z,100426.00
2022-11-24T02:16:57.586Z,100427.69
2022-11-24T02:19:44.856Z,100443.31
2022-11-24T02:22:24.106Z,100440.66
2022-11-24T02:25:02.236Z,100432.44
2022-11-24T02:27:37.013Z,100431.41
2022-11-24T02:30:10.145Z,100424.13
2022-11-24T02:32:44.726Z,100425.03
2022-11-24T02:35:17.366Z,100431.16
2022-11-24T02:37:49.206Z,100437.50
2022-11-24T02:40:25.924Z,100440.03
2022-11-24T02:43:05.296Z,100435.59
2022-11-24T02:45:37.289Z,100438.63
2022-11-24T02:48:10.090Z,100449.94
2022-11-24T02:51:01.812Z,100447.91
2022-11-24T02:53:34.846Z,100436.31
2022-11-24T02:56:07.075Z,100441.78
2022-11-24T02:58:41.536Z,100436.19
2022-11-24T03:01:13.728Z,100437.13
2022-11-24T03:03:46.219Z,100430.84
2022-11-24T03:06:18.628Z,100418.13
2022-11-24T03:08:50.394Z,100430.72
2022-11-24T03:11:24.813Z,100428.84
2022-11-24T03:14:01.168Z,100441.22
2022-11-24T03:16:33.268Z,100437.66
2022-11-24T03:19:05.392Z,100442.13
2022-11-24T03:21:40.638Z,100432.28
2022-11-24T03:24:13.037Z,100446.28
2022-11-24T03:26:45.124Z,100446.16
2022-11-24T03:29:20.609Z,100450.88
2022-11-24T03:31:52.369Z,100470.06
2022-11-24T03:34:24.073Z,100465.47
2022-11-24T03:36:56.116Z,100459.19
2022-11-24T03:39:27.713Z,100474.63
2022-11-24T03:41:59.634Z,100461.84
2022-11-24T03:44:34.069Z,100467.50
2022-11-24T03:47:21.153Z,100470.44
2022-11-24T03:49:53.093Z,100459.03
2022-11-24T03:52:26.963Z,100463.91
2022-11-24T03:54:58.602Z,100461.38
2022-11-24T03:57:30.484Z,100478.59
2022-11-24T04:00:06.858Z,100472.44
2022-11-24T04:02:39.035Z,100475.59
2022-11-24T04:05:11.584Z,100480.91
2022-11-24T04:07:43.875Z,100487.31
2022-11-24T04:10:17.345Z,100488.38
2022-11-24T04:12:48.422Z,100494.41
2022-11-24T04:15:23.130Z,100491.66
2022-11-24T04:17:59.876Z,100491.78
2022-11-24T04:20:34.347Z,100488.47
2022-11-24T04:23:09.268Z,100483.09
2022-11-24T04:25:41.949Z,100480.91
2022-11-24T04:28:14.604Z,100489.25
2022-11-24T04:30:52.356Z,100483.69
2022-11-24T04:33:24.756Z,100473.44
2022-11-24T04:35:57.382Z,100472.69
2022-11-24T04:39:19.416Z,100484.41
2022-11-24T04:41:25.680Z,100486.84
2022-11-24T04:43:58.216Z,100500.47
2022-11-24T04:46:32.766Z,100511.69
2022-11-24T04:49:05.827Z,100517.25
2022-11-24T04:51:37.774Z,100513.75
2022-11-24T04:54:11.160Z,100520.72
2022-11-24T04:56:44.273Z,100530.66
2022-11-24T04:59:17.775Z,100540.78
2022-11-24T05:01:52.474Z,100539.44
2022-11-24T05:04:25.562Z,100545.38
2022-11-24T05:06:57.647Z,100539.09
2022-11-24T05:09:54.948Z,100543.66
2022-11-24T05:12:24.820Z,100539.91
2022-11-24T05:14:56.697Z,100543.78
2022-11-24T05:17:34.292Z,100545.59
2022-11-24T05:20:09.082Z,100546.75
2022-11-24T05:22:40.536Z,100550.28
2022-11-24T05:25:13.230Z,100554.28
2022-11-24T05:31:08.927Z,100565.88
2022-11-24T05:33:44.343Z,100563.72
2022-11-24T05:36:36.475Z,100563.59
2022-11-24T05:39:10.074Z,100564.44
2022-11-24T05:41:43.197Z,100566.34
2022-11-24T05:44:16.595Z,100574.56
2022-11-24T05:46:48.487Z,100576.88
2022-11-24T05:49:50.465Z,100574.81
2022-11-24T05:52:22.575Z,100569.00
2022-11-24T05:54:54.836Z,100580.34
2022-11-24T05:57:26.626Z,100581.78
2022-11-24T05:59:59.146Z,100584.44
2022-11-24T06:02:31.155Z,100582.53
2022-11-24T06:05:06.624Z,100585.66
2022-11-24T06:07:38.600Z,100583.00
2022-11-24T06:10:10.979Z,100584.09
2022-11-24T06:12:42.771Z,100590.97
2022-11-24T06:15:15.001Z,100587.78
2022-11-24T06:17:46.808Z,100601.47
2022-11-24T06:20:27.020Z,100607.63
2022-11-24T06:23:01.557Z,100605.44
2022-11-24T06:25:34.135Z,100617.47
2022-11-24T06:28:13.576Z,100618.69
2022-11-24T06:30:49.474Z,100622.31
2022-11-24T06:33:21.140Z,100628.06
2022-11-24T06:35:55.575Z,100625.25
2022-11-24T06:38:26.956Z,100627.63
2022-11-24T06:41:03.343Z,100639.06
2022-11-24T06:43:35.193Z,100635.25
2022-11-24T06:46:07.962Z,100638.28
2022-11-24T06:48:39.693Z,100635.06
2022-11-24T06:51:16.113Z,100636.34
2022-11-24T06:53:48.990Z,100624.38
2022-11-24T06:56:23.348Z,100636.41
2022-11-24T06:58:56.232Z,100636.78
2022-11-24T07:01:29.876Z,100640.97
2022-11-24T07:04:03.449Z,100633.94
2022-11-24T07:06:40.247Z,100643.38
2022-11-24T07:09:12.522Z,100641.44
2022-11-24T07:11:47.529Z,100639.00
2022-11-24T07:14:19.360Z,100643.56
2022-11-24T07:16:53.756Z,100656.22
2022-11-24T07:19:26.037Z,100655.28
2022-11-24T07:22:00.746Z,100650.03
2022-11-24T07:24:36.511Z,100655.75
2022-11-24T07:27:10.088Z,100660.00
2022-11-24T07:29:41.724Z,100655.59
2022-11-24T07:32:15.782Z,100660.28
2022-11-24T07:34:48.744Z,100676.19
2022-11-24T07:37:31.489Z,100676.66
2022-11-24T07:40:05.049Z,100676.81
2022-11-24T07:42:37.422Z,100677.19
2022-11-24T07:45:11.953Z,100682.16
2022-11-24T07:47:44.946Z,100684.31
2022-11-24T07:50:17.023Z,100682.88
2022-11-24T07:55:38.239Z,100686.63
2022-11-24T07:58:11.016Z,100685.06
2022-11-24T08:00:43.845Z,100680.59
2022-11-24T08:03:16.776Z,100682.41
2022-11-24T08:06:23.113Z,100690.50
2022-11-24T08:08:53.880Z,100691.50
2022-11-24T08:11:26.725Z,100689.56
2022-11-24T08:14:00.387Z,100692.41
2022-11-24T08:16:33.126Z,100687.56
2022-11-24T08:19:05.897Z,100687.09
2022-11-24T08:21:38.236Z,100691.94
2022-11-24T08:24:15.636Z,100704.41
2022-11-24T08:26:48.297Z,100703.03
2022-11-24T08:29:21.513Z,100700.28
2022-11-24T08:31:53.395Z,100702.81
2022-11-24T08:34:26.155Z,100702.22
2022-11-24T08:36:58.131Z,100695.28
2022-11-24T08:39:32.969Z,100707.16
2022-11-24T08:42:04.943Z,100712.44
2022-11-24T08:44:36.859Z,100712.69
2022-11-24T08:47:08.800Z,100703.16
2022-11-24T08:49:40.501Z,100702.00
2022-11-24T08:52:15.606Z,100705.81
2022-11-24T08:54:50.616Z,100708.13
2022-11-24T08:57:22.112Z,100701.59
2022-11-24T08:59:54.288Z,100707.53
2022-11-24T09:02:25.491Z,100709.00
2022-11-24T09:04:57.353Z,100709.97
2022-11-24T09:07:28.942Z,100717.72
2022-11-24T09:10:03.443Z,100723.09
2022-11-24T09:12:34.807Z,100725.81
2022-11-24T09:15:07.551Z,100731.94
2022-11-24T09:17:39.768Z,100731.38
2022-11-24T09:20:12.027Z,100729.53
2022-11-24T09:22:44.785Z,100723.50
2022-11-24T09:25:19.315Z,100735.94
2022-11-24T09:27:50.512Z,100734.66
2022-11-24T09:30:25.182Z,100735.63
2022-11-24T09:32:58.708Z,100733.47
2022-11-24T09:35:30.811Z,100737.25
2022-11-24T09:38:02.439Z,100730.47
2022-11-24T09:40:36.838Z,100730.84
2022-11-24T09:43:15.810Z,100731.88
2022-11-24T09:46:05.600Z,100741.53
2022-11-24T09:48:41.735Z,100743.38
2022-11-24T09:51:16.739Z,100755.19
2022-11-24T09:53:51.606Z,100760.16
2022-11-24T09:56:28.603Z,100756.13
2022-11-24T09:59:04.894Z,100761.50
2022-11-24T10:01:40.375Z,100760.00
2022-11-24T10:04:21.616Z,100752.56
2022-11-24T10:07:01.970Z,100749.41
2022-11-24T10:09:56.355Z,100754.09
2022-11-24T10:12:44.198Z,100757.84
2022-11-24T10:15:32.456Z,100752.56
2022-11-24T10:18:49.816Z,100752.91
2022-11-24T10:21:44.325Z,100749.31
2022-11-24T10:24:43.431Z,100751.09
2022-11-24T10:27:20.035Z,100762.81
2022-11-24T10:29:56.377Z,100773.38
2022-11-24T10:32:31.066Z,100768.44
2022-11-24T10:35:15.886Z,100771.06
2022-11-24T10:37:55.359Z,100767.91
2022-11-24T10:43:32.094Z,100767.28
2022-11-24T10:46:15.191Z,100767.63
2022-11-24T10:48:51.634Z,100766.47
2022-11-24T10:51:51.747Z,100759.72
2022-11-24T10:54:26.691Z,100757.50
2022-11-24T10:56:59.493Z,100756.91
2022-11-24T10:59:38.841Z,100759.06
2022-11-24T11:02:35.896Z,100767.66
2022-11-24T11:05:31.607Z,100775.84
2022-11-24T11:08:23.136Z,100780.88
2022-11-24T11:11:23.001Z,100779.19
2022-11-24T11:14:03.806Z,100773.16
2022-11-24T11:16:41.054Z,100776.38
2022-11-24T11:19:48.998Z,100772.72
2022-11-24T11:22:28.218Z,100773.03
2022-11-24T11:25:21.968Z,100773.94
2022-11-24T11:27:54.749Z,100771.28
2022-11-24T11:36:21.923Z,100766.91
2022-11-24T11:38:54.360Z,100769.34
2022-11-24T11:41:34.431Z,100771.47
2022-11-24T11:44:24.835Z,100767.63
2022-11-24T11:47:01.735Z,100768.34
2022-11-24T11:49:46.042Z,100770.63
2022-11-24T11:52:54.320Z,100767.41
2022-11-24T11:55:37.171Z,100771.03
2022-11-24T11:58:39.071Z,100760.88
2022-11-24T12:01:26.513Z,100764.38
2022-11-24T12:04:17.319Z,100775.50
2022-11-24T12:07:14.332Z,100779.31
2022-11-24T12:10:02.038Z,100773.97
2022-11-24T12:13:05.006Z,100772.31
2022-11-24T12:15:43.922Z,100766.91
2022-11-24T12:18:56.350Z,100767.03
2022-11-24T12:21:29.325Z,100772.50
2022-11-24T12:24:14.250Z,100773.25
2022-11-24T12:26:55.094Z,100764.56
2022-11-24T12:29:57.330Z,100761.97
2022-11-24T12:32:47.892Z,100762.34
2022-11-24T12:35:29.890Z,100770.31
2022-11-24T12:38:14.893Z,100772.25
2022-11-24T12:44:02.170Z,100772.59
2022-11-24T12:46:45.358Z,100777.88
2022-11-24T12:49:39.385Z,100783.91
2022-11-24T12:52:24.727Z,100785.78
2022-11-24T12:54:59.455Z,100790.69
2022-11-24T12:57:37.646Z,100794.69
2022-11-24T13:00:22.994Z,100793.81
2022-11-24T13:03:20.624Z,100791.38
2022-11-24T13:06:01.086Z,100784.72
2022-11-24T13:08:35.118Z,100789.00
2022-11-24T13:11:43.152Z,100789.25
2022-11-24T13:14:22.075Z,100784.06
2022-11-24T13:19:55.835Z,100800.47
2022-11-24T13:22:29.965Z,100804.28
2022-11-24T13:25:21.835Z,100806.72
2022-11-24T13:27:58.074Z,100802.16
2022-11-24T13:31:13.251Z,100809.50
2022-11-24T13:33:49.238Z,100809.94
2022-11-24T13:36:37.522Z,100813.91
2022-11-24T13:39:23.894Z,100816.94
2022-11-24T13:42:06.113Z,100816.53
2022-11-24T13:44:58.835Z,100824.31
2022-11-24T13:47:43.492Z,100831.53
2022-11-24T13:50:27.055Z,100832.69
2022-11-24T13:53:21.113Z,100836.13
2022-11-24T13:56:01.956Z,100844.06
2022-11-24T13:58:41.440Z,100852.94
2022-11-24T14:01:25.521Z,100846.84
2022-11-24T14:04:30.621Z,100843.84
2022-11-24T14:07:09.995Z,100851.50
2022-11-24T14:09:47.237Z,100853.75
2022-11-24T14:12:22.310Z,100862.72
2022-11-24T14:14:56.782Z,100870.63
2022-11-24T14:17:31.903Z,100868.75
2022-11-24T14:20:25.664Z,100877.25
2022-11-24T14:23:01.422Z,100873.75
2022-11-24T14:25:37.464Z,100876.97
2022-11-24T14:28:24.089Z,100877.41
2022-11-24T14:31:28.403Z,100879.41
2022-11-24T14:34:21.684Z,100876.41
2022-11-24T14:36:55.523Z,100881.03
2022-11-24T14:39:31.988Z,100878.25
2022-11-24T14:42:08.911Z,100881.38
2022-11-24T14:44:51.049Z,100882.19
2022-11-24T14:47:32.220Z,100885.84
2022-11-24T14:50:15.473Z,100893.16
2022-11-24T14:52:52.751Z,100889.78
2022-11-24T14:55:35.792Z,100901.06
2022-11-24T14:58:24.484Z,100898.38
2022-11-24T15:01:14.047Z,100895.84
2022-11-24T15:03:47.116Z,100904.72
2022-11-24T15:06:23.157Z,100901.91
2022-11-24T15:08:56.152Z,100904.16
2022-11-24T15:11:34.119Z,100913.75
2022-11-24T15:14:06.893Z,100917.38
2022-11-24T15:16:44.083Z,100918.81
2022-11-24T15:19:20.265Z,100918.25
2022-11-24T15:21:53.491Z,100920.38
2022-11-24T15:24:26.012Z,100926.41
2022-11-24T15:27:08.263Z,100927.53
2022-11-24T15:29:40.940Z,100926.97
2022-11-24T15:32:18.637Z,100933.16
2022-11-24T15:34:51.466Z,100923.47
2022-11-24T15:37:24.768Z,100935.22
2022-11-24T15:39:57.436Z,100930.00
2022-11-24T15:42:33.178Z,100938.72
2022-11-24T15:45:06.176Z,100942.97
2022-11-24T15:47:39.383Z,100958.94
2022-11-24T15:50:13.221Z,100965.97
2022-11-24T15:52:46.574Z,100949.06
2022-11-24T15:55:21.916Z,100948.75
2022-11-24T15:57:57.695Z,100952.25
2022-11-24T16:00:30.246Z,100950.00
2022-11-24T16:03:24.065Z,100959.78
2022-11-24T16:05:59.583Z,100956.97
2022-11-24T16:08:32.671Z,100963.13
2022-11-24T16:11:05.276Z,100965.53
2022-11-24T16:13:41.113Z,100960.75
2022-11-24T16:16:15.785Z,100969.13
2022-11-24T16:18:49.076Z,100975.34
2022-11-24T16:21:22.034Z,100968.59
2022-11-24T16:23:55.164Z,100964.94
2022-11-24T16:26:27.768Z,100972.69
2022-11-24T16:29:03.703Z,100972.88
2022-11-24T16:31:36.669Z,100974.66
2022-11-24T16:34:09.853Z,100975.63
2022-11-24T16:36:42.537Z,100970.16
2022-11-24T16:39:15.573Z,100971.38
2022-11-24T16:41:48.254Z,100974.47
2022-11-24T16:44:24.099Z,100971.81
2022-11-24T16:46:57.458Z,100979.06
2022-11-24T16:49:30.493Z,100981.28
2022-11-24T16:52:03.341Z,100974.31
2022-11-24T16:54:36.283Z,100973.03
2022-11-24T16:57:14.582Z,100984.59
2022-11-24T16:59:50.571Z,100989.06
2022-11-24T17:02:23.281Z,100991.47
2022-11-24T17:04:56.615Z,100988.91
2022-11-24T17:07:29.152Z,100998.06
2022-11-24T17:10:02.212Z,100995.19
2022-11-24T17:12:34.656Z,100995.03
2022-11-24T17:15:45.302Z,100992.78
2022-11-24T17:21:03.209Z,100999.41
2022-11-24T17:23:38.720Z,100997.31
2022-11-24T17:26:15.000Z,100997.69
2022-11-24T17:28:47.998Z,101004.13
2022-11-24T17:31:25.771Z,101014.09
2022-11-24T17:33:59.810Z,101017.13
2022-11-24T17:36:35.777Z,101013.19
2022-11-24T17:39:29.023Z,101008.25
2022-11-24T17:42:01.527Z,101009.81
2022-11-24T17:44:33.618Z,101001.75
2022-11-24T17:47:09.020Z,101001.97
2022-11-24T17:49:40.445Z,101005.19
2022-11-24T17:52:14.261Z,101002.78
2022-11-24T17:54:57.074Z,101007.00
2022-11-24T17:57:29.519Z,101013.47
2022-11-24T18:00:01.497Z,101008.16
2022-11-24T18:02:36.134Z,101010.06
2022-11-24T18:05:08.377Z,101003.59
2022-11-24T18:07:40.444Z,101006.09
2022-11-24T18:10:15.220Z,101011.03
2022-11-24T18:12:50.218Z,101019.47
2022-11-24T18:15:21.873Z,101029.53
2022-11-24T18:17:58.253Z,101031.69
2022-11-24T18:20:30.459Z,101033.22
2022-11-24T18:23:06.137Z,101026.84
2022-11-24T18:25:39.973Z,101030.44
2022-11-24T18:28:12.653Z,101034.72
2022-11-24T18:30:46.474Z,101046.44
2022-11-24T18:33:41.773Z,101046.69
2022-11-24T18:36:16.454Z,101047.63
2022-11-24T18:38:49.114Z,101052.38
2022-11-24T18:41:21.356Z,101039.91
2022-11-24T18:43:53.616Z,101043.97
2022-11-24T18:46:25.443Z,101045.41
2022-11-24T18:49:00.315Z,101046.16
2022-11-24T18:51:32.634Z,101052.72
2022-11-24T18:54:05.783Z,101057.66
2022-11-24T18:56:38.256Z,101049.19
2022-11-24T18:59:10.915Z,101043.84
2022-11-24T19:01:43.767Z,101041.69
2022-11-24T19:04:18.995Z,101032.34
2022-11-24T19:06:51.313Z,101039.28
2022-11-24T19:09:25.838Z,101043.53
2022-11-24T19:11:58.253Z,101041.25
2022-11-24T19:14:30.913Z,101039.41
2022-11-24T19:17:04.820Z,101037.50
2022-11-24T19:19:40.145Z,101038.66
2022-11-24T19:22:13.647Z,101048.44
2022-11-24T19:24:47.088Z,101048.94
2022-11-24T19:27:21.557Z,101048.09
2022-11-24T19:29:55.468Z,101043.03
2022-11-24T19:32:27.713Z,101050.03
2022-11-24T19:35:03.113Z,101050.13
2022-11-24T19:37:35.272Z,101055.34
2022-11-24T19:40:09.812Z,101055.25
2022-11-24T19:42:42.059Z,101061.28
2022-11-24T19:45:15.163Z,101063.88
2022-11-24T19:47:47.973Z,101059.06
2022-11-24T19:50:23.659Z,101066.19
2022-11-24T19:52:55.332Z,101067.88
2022-11-24T19:55:31.192Z,101069.09
2022-11-24T19:58:03.280Z,101078.16
2022-11-24T20:00:35.973Z,101078.81
2022-11-24T20:03:08.233Z,101082.63
2022-11-24T20:05:43.553Z,101089.81
2022-11-24T20:08:15.613Z,101088.97
2022-11-24T20:10:48.212Z,101095.31
2022-11-24T20:13:20.172Z,101097.56
2022-11-24T20:15:52.754Z,101100.97
2022-11-24T20:18:25.713Z,101095.53
2022-11-24T20:21:05.413Z,101111.03
2022-11-24T20:23:37.886Z,101105.59
2022-11-24T20:26:12.925Z,101112.50
2022-11-24T20:28:45.766Z,101110.09
2022-11-24T20:31:22.770Z,101118.94
2022-11-24T20:33:56.178Z,101117.22
2022-11-24T20:36:31.997Z,101120.00
2022-11-24T20:39:05.208Z,101115.91
2022-11-24T20:41:39.465Z,101114.69
2022-11-24T20:44:13.820Z,101113.38
2022-11-24T20:46:48.643Z,101108.25
2022-11-24T20:49:23.456Z,101109.13
2022-11-24T20:51:58.276Z,101110.59
2022-11-24T20:54:29.758Z,101103.91
2022-11-24T20:57:01.633Z,101111.69
2022-11-24T20:59:32.807Z,101112.28
2022-11-24T21:02:06.857Z,101116.88
2022-11-24T21:04:38.351Z,101117.72
2022-11-24T21:07:14.985Z,101124.50
2022-11-24T21:09:46.304Z,101124.38
2022-11-24T21:12:18.109Z,101122.91
2022-11-24T21:14:49.352Z,101124.41
2022-11-24T21:17:23.270Z,101119.41
2022-11-24T21:20:00.969Z,101127.28
2022-11-24T21:22:35.885Z,101130.06
2022-11-24T21:25:07.597Z,101125.09
2022-11-24T21:27:40.414Z,101126.09
2022-11-24T21:30:13.247Z,101125.59
2022-11-24T21:32:45.294Z,101123.19
2022-11-24T21:35:16.816Z,101127.06
2022-11-24T21:37:51.164Z,101127.88
2022-11-24T21:40:22.716Z,101134.09
2022-11-24T21:42:54.383Z,101123.91
2022-11-24T21:45:25.770Z,101136.75
2022-11-24T21:47:57.813Z,101134.44
2022-11-24T21:50:29.286Z,101140.72
2022-11-24T21:53:04.551Z,101142.56
2022-11-24T21:55:36.268Z,101145.25
2022-11-24T21:58:09.487Z,101149.94
2022-11-24T22:00:40.976Z,101148.75
2022-11-24T22:03:13.115Z,101148.84
2022-11-24T22:05:47.373Z,101145.72
2022-11-24T22:08:22.051Z,101154.44
2022-11-24T22:10:53.845Z,101145.34
2022-11-24T22:13:25.663Z,101151.53
2022-11-24T22:16:05.723Z,101152.13
2022-11-24T22:18:39.338Z,101150.19
2022-11-24T22:21:14.064Z,101154.91
2022-11-24T22:23:49.604Z,101166.13
2022-11-24T22:26:24.489Z,101164.63
2022-11-24T22:28:58.004Z,101168.03
2022-11-24T22:31:34.507Z,101159.69
2022-11-24T22:34:06.602Z,101169.63
2022-11-24T22:36:38.937Z,101171.25
2022-11-24T22:39:15.673Z,101168.47
2022-11-24T22:41:47.528Z,101159.47
2022-11-24T22:44:19.223Z,101161.41
2022-11-24T22:46:50.804Z,101165.88
2022-11-24T22:49:24.109Z,101173.16
2022-11-24T22:51:55.728Z,101166.84
2022-11-24T22:54:30.255Z,101171.97
2022-11-24T22:57:01.744Z,101166.38
2022-11-24T22:59:33.689Z,101171.25
2022-11-24T23:02:05.118Z,101170.75
2022-11-24T23:04:37.179Z,101171.84
2022-11-24T23:07:10.117Z,101174.59
2022-11-24T23:09:44.344Z,101178.75
2022-11-24T23:12:15.566Z,101183.38
2022-11-24T23:14:47.332Z,101179.56
2022-11-24T23:17:18.682Z,101182.78
2022-11-24T23:19:50.653Z,101178.13
2022-11-24T23:22:21.926Z,101181.19
2022-11-24T23:24:59.192Z,101178.25
2022-11-24T23:27:30.435Z,101185.16
2022-11-24T23:30:02.393Z,101175.44
2022-11-24T23:32:33.836Z,101173.16
2022-11-24T23:35:10.911Z,101171.47
2022-11-24T23:38:06.391Z,101179.44
2022-11-24T23:40:39.274Z,101174.47
2022-11-24T23:43:10.478Z,101176.50
2022-11-24T23:45:44.381Z,101179.19
2022-11-24T23:48:15.725Z,101189.69
2022-11-24T23:50:47.749Z,101187.69
2022-11-24T23:53:19.126Z,101186.66
2022-11-24T23:55:59.262Z,101191.22
2022-11-24T23:58:34.467Z,101188.09
